Time;durP1;ratioP1;P1;durP2;ratioP2;P2;SDS_P1;SDS_P2;PMS_P1;PMS_P2;Temp;Humidity;BMP_temperature;BMP_pressure;BME280_temperature;BME280_humidity;BME280_pressure;Samples;Min_cycle;Max_cycle;Signal;HPM_P1;HPM_P2
2021/10/14 00:00:41;;;;;;;10.23;7.13;;;;;;;8.10;100.00;100974.47;5011205;28;20507;-63
2021/10/14 00:03:08;;;;;;;9.65;7.00;;;;;;;8.09;100.00;100964.75;5009754;28;20088;-65
2021/10/14 00:05:34;;;;;;;9.30;6.72;;;;;;;8.04;100.00;100964.19;5011489;28;20037;-63
2021/10/14 00:08:00;;;;;;;10.88;6.80;;;;;;;8.06;100.00;100971.13;5011343;28;20052;-63
2021/10/14 00:10:26;;;;;;;9.27;6.30;;;;;;;8.02;100.00;100960.75;5010766;28;20052;-63
2021/10/14 00:12:52;;;;;;;10.50;6.43;;;;;;;8.07;100.00;100963.97;5011121;28;20034;-63
2021/10/14 00:15:18;;;;;;;11.23;5.93;;;;;;;8.08;100.00;100971.03;5011311;28;20036;-63
2021/10/14 00:17:43;;;;;;;9.80;6.03;;;;;;;8.03;100.00;100968.66;5010813;28;20079;-62
2021/10/14 00:20:10;;;;;;;8.27;5.57;;;;;;;8.04;100.00;100977.53;5010893;28;20026;-63
2021/10/14 00:22:35;;;;;;;9.05;5.90;;;;;;;7.96;100.00;100971.88;5010841;28;20118;-64
2021/10/14 00:25:01;;;;;;;10.30;6.68;;;;;;;7.98;100.00;100977.94;5011435;28;20120;-63
2021/10/14 00:27:27;;;;;;;7.40;5.60;;;;;;;7.99;100.00;100982.31;5010380;28;20449;-63
2021/10/14 00:29:52;;;;;;;8.98;6.00;;;;;;;8.00;100.00;100982.22;5009212;28;20076;-63
2021/10/14 00:32:18;;;;;;;9.40;6.43;;;;;;;8.02;100.00;100974.09;5010411;28;20057;-63
2021/10/14 00:34:43;;;;;;;10.82;6.90;;;;;;;8.02;100.00;100980.31;5010884;28;20061;-63
2021/10/14 00:37:09;;;;;;;10.18;6.93;;;;;;;8.04;100.00;100980.22;5010602;28;20026;-62
2021/10/14 00:39:34;;;;;;;10.43;7.43;;;;;;;8.04;100.00;100969.53;5011124;28;20046;-63
2021/10/14 00:42:00;;;;;;;11.65;8.43;;;;;;;8.06;100.00;100972.97;5005652;28;20038;-63
2021/10/14 00:44:25;;;;;;;10.52;7.78;;;;;;;8.07;100.00;100969.31;5007543;28;20034;-64
2021/10/14 00:46:55;;;;;;;11.57;8.35;;;;;;;8.05;100.00;100966.75;5010439;28;20030;-63
2021/10/14 00:49:22;;;;;;;11.38;7.07;;;;;;;8.06;100.00;100971.13;5010258;28;20045;-63
2021/10/14 00:51:48;;;;;;;11.38;7.43;;;;;;;8.07;100.00;100974.66;5010292;28;20029;-62
2021/10/14 00:54:16;;;;;;;11.23;8.18;;;;;;;8.06;100.00;100972.97;5010440;28;20396;-64
2021/10/14 00:56:42;;;;;;;10.18;7.65;;;;;;;8.04;100.00;100982.88;5009566;28;20037;-62
2021/10/14 00:59:08;;;;;;;11.63;8.18;;;;;;;8.06;100.00;100972.97;5010056;28;20475;-63
2021/10/14 01:01:36;;;;;;;11.23;8.02;;;;;;;8.01;100.00;100972.41;5010601;28;20491;-64
2021/10/14 01:04:04;;;;;;;10.68;7.93;;;;;;;8.00;100.00;100970.69;5005079;28;20038;-63
2021/10/14 01:06:29;;;;;;;12.93;7.90;;;;;;;8.03;100.00;100967.81;4990592;28;20022;-62
2021/10/14 01:08:55;;;;;;;10.02;7.43;;;;;;;8.02;100.00;100976.78;4990565;28;20084;-62
2021/10/14 01:11:20;;;;;;;11.10;7.78;;;;;;;8.01;100.00;100977.75;4990654;28;20031;-63
2021/10/14 01:13:46;;;;;;;11.63;8.30;;;;;;;7.99;100.00;100969.81;4989980;28;20041;-63
2021/10/14 01:16:11;;;;;;;11.30;8.18;;;;;;;8.08;100.00;100979.03;4990322;28;20037;-63
2021/10/14 01:18:36;;;;;;;11.80;8.57;;;;;;;8.05;100.00;100974.75;4990227;28;20035;-63
2021/10/14 01:21:02;;;;;;;13.68;9.00;;;;;;;7.97;100.00;100974.41;5003747;28;20075;-63
2021/10/14 01:23:28;;;;;;;13.45;8.25;;;;;;;8.01;100.00;100975.94;5007297;28;20041;-64
2021/10/14 01:25:53;;;;;;;13.00;8.98;;;;;;;7.99;100.00;100988.53;4990128;28;20029;-62
2021/10/14 01:28:18;;;;;;;15.65;9.05;;;;;;;7.96;100.00;100983.38;4989626;28;20030;-62
2021/10/14 01:30:44;;;;;;;12.23;8.85;;;;;;;7.87;100.00;100975.97;4990016;28;20030;-63
2021/10/14 01:33:11;;;;;;;11.82;8.63;;;;;;;7.96;100.00;100985.22;4989982;28;20120;-63
2021/10/14 01:35:36;;;;;;;12.27;8.50;;;;;;;7.97;100.00;100989.59;4989740;28;20084;-62
2021/10/14 01:38:02;;;;;;;12.00;8.20;;;;;;;7.96;100.00;100985.22;4990250;28;20030;-63
2021/10/14 01:40:28;;;;;;;12.77;8.70;;;;;;;7.97;100.00;100984.25;4989875;28;20045;-62
2021/10/14 01:42:53;;;;;;;10.45;8.18;;;;;;;7.98;100.00;100983.28;4989651;28;20085;-63
2021/10/14 01:45:19;;;;;;;11.07;8.00;;;;;;;8.02;100.00;100982.13;4989562;28;20034;-64
2021/10/14 01:47:44;;;;;;;10.95;7.82;;;;;;;8.06;100.00;100992.50;4989749;28;20062;-63
2021/10/14 01:50:10;;;;;;;8.82;7.15;;;;;;;8.07;100.00;100996.91;4989914;28;20025;-64
2021/10/14 01:52:35;;;;;;;15.60;7.75;;;;;;;8.07;100.00;100996.03;4991490;28;20054;-62
2021/10/14 01:55:01;;;;;;;11.90;7.45;;;;;;;8.03;100.00;100981.19;5009539;28;20025;-64
2021/10/14 01:57:26;;;;;;;12.07;7.20;;;;;;;8.01;100.00;100980.41;5008860;28;20114;-63
2021/10/14 01:59:52;;;;;;;8.77;6.13;;;;;;;8.08;100.00;100993.25;5007928;28;20372;-63
2021/10/14 02:02:17;;;;;;;10.57;6.68;;;;;;;8.09;100.00;100997.63;5000127;28;20334;-63
2021/10/14 02:04:42;;;;;;;10.38;7.28;;;;;;;7.95;100.00;100975.47;5000087;28;20087;-63
2021/10/14 02:07:08;;;;;;;11.73;7.20;;;;;;;8.09;100.00;100999.47;5008966;28;20032;-63
2021/10/14 02:09:33;;;;;;;11.65;7.10;;;;;;;8.05;100.00;100997.94;5009428;28;20025;-63
2021/10/14 02:11:59;;;;;;;10.40;7.07;;;;;;;8.07;100.00;101004.03;5008968;28;20099;-63
2021/10/14 02:14:24;;;;;;;9.98;7.47;;;;;;;8.04;100.00;100997.09;5008792;28;20401;-64
2021/10/14 02:16:50;;;;;;;9.93;6.47;;;;;;;7.96;100.00;100980.72;5009117;28;20029;-64
2021/10/14 02:19:16;;;;;;;9.63;7.13;;;;;;;8.11;100.00;100997.53;4996402;28;20026;-63
2021/10/14 02:21:41;;;;;;;9.43;7.25;;;;;;;8.05;100.00;101001.47;5008603;28;20055;-63
2021/10/14 02:24:07;;;;;;;10.70;7.72;;;;;;;7.97;100.00;101000.28;5008741;28;20030;-62
2021/10/14 02:26:32;;;;;;;11.45;7.63;;;;;;;8.00;100.00;101008.09;5008756;28;20053;-64
2021/10/14 02:28:58;;;;;;;10.52;7.38;;;;;;;7.98;100.00;101002.84;5008569;28;20095;-65
2021/10/14 02:31:23;;;;;;;11.05;7.70;;;;;;;8.01;100.00;101012.47;5008586;28;20095;-63
2021/10/14 02:33:49;;;;;;;12.13;8.35;;;;;;;8.00;100.00;101005.41;5008621;28;20667;-63
2021/10/14 02:36:14;;;;;;;11.45;8.32;;;;;;;7.98;100.00;100999.31;5008592;28;20033;-64
2021/10/14 02:38:40;;;;;;;9.98;8.02;;;;;;;7.90;100.00;100996.31;5002086;28;20041;-64
2021/10/14 02:41:05;;;;;;;11.45;8.18;;;;;;;7.97;100.00;101005.63;4989189;28;20026;-63
2021/10/14 02:43:31;;;;;;;10.13;8.05;;;;;;;8.04;100.00;101009.59;5001625;28;20042;-64
2021/10/14 02:45:56;;;;;;;12.60;7.63;;;;;;;7.97;100.00;101008.28;5008725;28;20042;-63
2021/10/14 02:48:22;;;;;;;10.40;7.97;;;;;;;7.90;100.00;101007.81;5008404;28;20026;-64
2021/10/14 02:50:47;;;;;;;10.30;7.90;;;;;;;7.93;100.00;101007.63;4998063;28;20022;-64
2021/10/14 02:53:13;;;;;;;11.80;8.25;;;;;;;7.89;100.00;101011.47;4988904;28;20389;-63
2021/10/14 02:55:38;;;;;;;11.43;8.35;;;;;;;7.88;100.00;101000.88;4988579;28;20033;-63
2021/10/14 02:58:04;;;;;;;10.52;8.10;;;;;;;7.88;100.00;101011.56;4988895;28;20507;-63
2021/10/14 03:00:29;;;;;;;11.93;8.07;;;;;;;7.80;100.00;100993.38;4988785;28;20046;-64
2021/10/14 03:02:55;;;;;;;12.30;7.93;;;;;;;7.88;100.00;101001.75;4988796;28;20022;-62
2021/10/14 03:05:20;;;;;;;11.02;8.00;;;;;;;7.91;100.00;101008.69;4988670;28;20080;-64
2021/10/14 03:07:46;;;;;;;14.38;8.35;;;;;;;7.91;100.00;101006.03;4988715;28;20030;-63
2021/10/14 03:10:11;;;;;;;13.32;8.60;;;;;;;7.88;100.00;101012.44;4988663;28;20030;-64
2021/10/14 03:12:37;;;;;;;13.90;8.23;;;;;;;7.79;100.00;101010.34;4988509;28;20030;-63
2021/10/14 03:15:03;;;;;;;10.25;7.40;;;;;;;7.82;100.00;101018.16;4988749;28;20026;-63
2021/10/14 03:17:28;;;;;;;13.00;8.68;;;;;;;7.81;100.00;101018.25;4988528;28;20109;-63
2021/10/14 03:19:54;;;;;;;11.00;7.57;;;;;;;7.77;100.00;101008.75;4991702;28;20113;-63
2021/10/14 03:22:20;;;;;;;12.13;8.65;;;;;;;7.70;100.00;101012.78;4993525;28;20054;-63
2021/10/14 03:24:45;;;;;;;11.25;8.55;;;;;;;7.77;100.00;101019.44;5011940;28;20026;-64
2021/10/14 03:27:11;;;;;;;16.20;9.15;;;;;;;7.74;100.00;101027.63;5006796;28;20053;-64
2021/10/14 03:29:36;;;;;;;12.23;8.55;;;;;;;7.77;100.00;101025.59;4992091;28;20133;-64
2021/10/14 03:32:02;;;;;;;12.30;8.73;;;;;;;7.80;100.00;101033.41;4992101;28;20052;-64
2021/10/14 03:34:27;;;;;;;14.77;9.93;;;;;;;7.81;100.00;101035.16;4991150;28;20034;-63
2021/10/14 03:36:53;;;;;;;13.73;9.20;;;;;;;7.81;100.00;101037.81;5006775;28;20046;-63
2021/10/14 03:39:18;;;;;;;12.25;8.60;;;;;;;7.81;100.00;101043.16;4991939;28;20026;-62
2021/10/14 03:41:44;;;;;;;12.80;8.68;;;;;;;7.87;100.00;101039.22;4991366;28;20042;-63
2021/10/14 03:44:11;;;;;;;12.15;8.45;;;;;;;7.82;100.00;101041.34;4991092;28;20100;-64
2021/10/14 03:46:37;;;;;;;13.32;9.18;;;;;;;7.86;100.00;101034.81;4992034;28;20516;-63
2021/10/14 03:49:02;;;;;;;11.18;8.65;;;;;;;7.74;100.00;101019.63;4992255;28;20124;-62
2021/10/14 03:51:28;;;;;;;13.77;9.27;;;;;;;7.86;100.00;101043.72;4991126;28;20034;-63
2021/10/14 03:53:53;;;;;;;14.80;10.02;;;;;;;7.78;100.00;101022.00;4991567;28;20061;-64
2021/10/14 03:56:19;;;;;;;14.30;9.32;;;;;;;7.85;100.00;101038.47;5006500;28;20030;-64
2021/10/14 03:58:44;;;;;;;11.50;8.85;;;;;;;7.83;100.00;101038.56;4991416;28;20033;-63
2021/10/14 04:01:10;;;;;;;13.75;9.10;;;;;;;7.83;100.00;101048.41;4991281;28;20069;-62
2021/10/14 04:03:35;;;;;;;13.32;9.73;;;;;;;7.81;100.00;101040.50;4991884;28;20527;-63
2021/10/14 04:06:01;;;;;;;15.40;9.93;;;;;;;7.79;100.00;101037.06;4990376;28;20022;-63
2021/10/14 04:08:26;;;;;;;14.07;9.98;;;;;;;7.83;100.00;101043.06;4991629;28;20034;-63
2021/10/14 04:10:52;;;;;;;12.35;9.32;;;;;;;7.79;100.00;101038.84;4991423;28;20034;-62
2021/10/14 04:13:17;;;;;;;14.85;9.85;;;;;;;7.76;100.00;101044.41;4991580;28;20030;-63
2021/10/14 04:15:42;;;;;;;15.45;10.32;;;;;;;7.72;100.00;101041.09;4991382;28;20026;-62
2021/10/14 04:18:08;;;;;;;14.68;10.15;;;;;;;7.73;100.00;101039.25;4991462;28;20066;-63
2021/10/14 04:20:34;;;;;;;17.38;11.15;;;;;;;7.73;100.00;101042.78;4991801;28;20030;-62
2021/10/14 04:22:59;;;;;;;14.05;10.20;;;;;;;7.81;100.00;101047.63;4991262;28;20022;-63
2021/10/14 04:25:26;;;;;;;14.85;10.57;;;;;;;7.81;100.00;101053.84;4990927;28;20049;-63
2021/10/14 04:27:52;;;;;;;13.73;10.15;;;;;;;7.80;100.00;101056.63;4990978;28;20109;-63
2021/10/14 04:30:18;;;;;;;16.73;11.70;;;;;;;7.80;100.00;101049.44;4982423;28;20473;-62
2021/10/14 04:32:44;;;;;;;15.85;10.98;;;;;;;7.82;100.00;101060.03;4991133;28;20019;-63
2021/10/14 04:35:10;;;;;;;15.35;11.50;;;;;;;7.75;100.00;101040.03;4991203;28;20105;-63
2021/10/14 04:37:42;;;;;;;14.00;11.10;;;;;;;7.88;100.00;101059.63;4991207;28;20114;-63
2021/10/14 04:40:08;;;;;;;16.58;11.35;;;;;;;7.75;100.00;101037.34;4991203;28;20121;-63
2021/10/14 04:42:34;;;;;;;14.50;11.52;;;;;;;7.88;100.00;101059.63;4991104;28;20076;-62
2021/10/14 04:44:59;;;;;;;16.30;10.45;;;;;;;7.90;100.00;101057.72;5002618;28;20057;-63
2021/10/14 04:47:25;;;;;;;14.95;10.77;;;;;;;7.85;100.00;101063.38;4999422;28;20038;-63
2021/10/14 04:49:51;;;;;;;14.57;11.15;;;;;;;7.87;100.00;101064.09;4991061;28;20038;-63
2021/10/14 04:52:16;;;;;;;15.95;11.48;;;;;;;7.85;100.00;101059.81;4989565;28;20531;-64
2021/10/14 04:54:42;;;;;;;15.73;12.30;;;;;;;7.85;100.00;101060.69;4990299;28;20073;-62
2021/10/14 04:57:07;;;;;;;17.17;10.90;;;;;;;7.81;100.00;101053.84;5001501;28;20068;-64
2021/10/14 04:59:33;;;;;;;17.15;11.32;;;;;;;7.86;100.00;101070.41;4993042;28;20042;-63
2021/10/14 05:01:58;;;;;;;15.73;11.75;;;;;;;7.87;100.00;101076.63;4990829;28;20026;-63
2021/10/14 05:04:24;;;;;;;16.00;11.15;;;;;;;7.88;100.00;101078.31;4990753;28;20042;-63
2021/10/14 05:06:49;;;;;;;24.33;13.27;;;;;;;7.87;100.00;101081.97;4990924;28;20026;-63
2021/10/14 05:09:15;;;;;;;15.95;12.05;;;;;;;7.85;100.00;101078.53;5005176;28;20022;-63
2021/10/14 05:11:41;;;;;;;18.00;12.27;;;;;;;7.85;100.00;101082.06;5008939;28;20041;-62
2021/10/14 05:14:06;;;;;;;14.40;10.80;;;;;;;7.86;100.00;101085.56;5010366;28;20032;-63
2021/10/14 05:16:33;;;;;;;16.00;11.27;;;;;;;7.84;100.00;101088.34;5008942;28;20033;-63
2021/10/14 05:19:00;;;;;;;16.00;10.98;;;;;;;7.82;100.00;101068.91;5010136;28;20080;-63
2021/10/14 05:21:26;;;;;;;15.27;10.98;;;;;;;7.86;100.00;101088.25;5009872;28;20030;-62
2021/10/14 05:23:51;;;;;;;14.98;10.60;;;;;;;7.90;100.00;101090.63;5009680;28;20024;-63
2021/10/14 05:26:17;;;;;;;14.13;10.70;;;;;;;7.88;100.00;101084.53;5009744;28;20103;-63
2021/10/14 05:28:42;;;;;;;16.05;11.98;;;;;;;7.91;100.00;101083.47;5009869;28;20029;-63
2021/10/14 05:31:08;;;;;;;18.95;13.68;;;;;;;7.91;100.00;101087.00;5000770;28;20036;-63
2021/10/14 05:33:34;;;;;;;19.45;14.07;;;;;;;7.80;100.00;101070.81;5000944;28;20145;-63
2021/10/14 05:35:59;;;;;;;20.08;13.10;;;;;;;7.88;100.00;101081.88;5000128;28;20033;-63
2021/10/14 05:38:25;;;;;;;17.95;12.32;;;;;;;7.96;100.00;101103.56;5002641;28;20034;-63
2021/10/14 05:40:51;;;;;;;16.23;11.80;;;;;;;7.97;100.00;101096.44;4989100;28;20034;-63
2021/10/14 05:43:16;;;;;;;16.15;11.82;;;;;;;7.97;100.00;101099.94;4988803;28;20018;-63
2021/10/14 05:45:42;;;;;;;16.73;11.20;;;;;;;7.96;100.00;101095.56;4988933;28;20044;-63
2021/10/14 05:48:07;;;;;;;14.50;10.68;;;;;;;7.92;100.00;101086.03;4989266;28;20464;-63
2021/10/14 05:50:33;;;;;;;11.95;9.80;;;;;;;8.01;100.00;101103.28;4989044;28;20057;-63
2021/10/14 05:52:58;;;;;;;17.27;10.02;;;;;;;8.01;100.00;101104.16;4988665;28;20437;-63
2021/10/14 05:55:24;;;;;;;14.80;9.95;;;;;;;8.04;100.00;101108.44;4988783;28;20030;-63
2021/10/14 05:57:49;;;;;;;12.10;8.98;;;;;;;8.03;100.00;101115.56;4989716;28;20034;-64
2021/10/14 06:00:15;;;;;;;12.65;9.45;;;;;;;8.04;100.00;101121.78;4987761;28;20018;-62
2021/10/14 06:02:41;;;;;;;11.93;9.55;;;;;;;8.01;100.00;101113.97;4988223;28;20022;-62
2021/10/14 06:05:07;;;;;;;15.45;11.00;;;;;;;8.08;100.00;101133.97;5006839;28;20025;-61
2021/10/14 06:07:32;;;;;;;16.85;12.55;;;;;;;8.08;100.00;101132.19;5008181;28;20030;-63
2021/10/14 06:09:58;;;;;;;17.90;12.15;;;;;;;8.11;100.00;101136.47;5009282;28;20014;-62
2021/10/14 06:12:23;;;;;;;14.40;11.25;;;;;;;8.12;100.00;101132.81;5008693;28;20029;-63
2021/10/14 06:14:48;;;;;;;13.73;11.18;;;;;;;8.14;100.00;101138.94;4993218;28;20019;-63
2021/10/14 06:17:14;;;;;;;14.57;10.55;;;;;;;8.14;100.00;101153.16;4989023;28;20105;-63
2021/10/14 06:19:39;;;;;;;14.38;11.00;;;;;;;8.14;100.00;101141.59;4989635;28;20124;-63
2021/10/14 06:22:05;;;;;;;12.95;10.07;;;;;;;8.18;100.00;101148.47;4988776;28;20042;-64
2021/10/14 06:24:30;;;;;;;12.90;10.05;;;;;;;8.18;100.00;101159.16;4989084;28;20546;-63
2021/10/14 06:26:56;;;;;;;12.80;9.38;;;;;;;8.15;100.00;101154.00;4989039;28;20134;-63
2021/10/14 06:29:22;;;;;;;11.52;9.20;;;;;;;8.21;100.00;101153.59;4988944;28;20031;-63
2021/10/14 06:31:47;;;;;;;13.13;9.70;;;;;;;8.20;100.00;101154.56;4989120;28;20339;-64
2021/10/14 06:34:13;;;;;;;13.20;9.35;;;;;;;8.25;100.00;101156.03;4989037;28;20033;-63
2021/10/14 06:36:38;;;;;;;12.90;9.25;;;;;;;8.29;100.00;101162.03;4989079;28;20026;-63
2021/10/14 06:39:04;;;;;;;14.68;9.40;;;;;;;8.28;100.00;101162.97;4989140;28;20032;-62
2021/10/14 06:41:29;;;;;;;14.00;9.73;;;;;;;8.38;100.00;101167.63;4988755;28;20053;-63
2021/10/14 06:43:55;;;;;;;11.95;9.05;;;;;;;8.40;100.00;101170.19;4988865;28;20531;-64
2021/10/14 06:46:20;;;;;;;12.10;8.55;;;;;;;8.46;100.00;101169.81;4988650;28;20053;-62
2021/10/14 06:48:45;;;;;;;12.55;9.13;;;;;;;8.42;100.00;101165.63;4988761;28;20050;-64
2021/10/14 06:51:11;;;;;;;11.70;9.45;;;;;;;8.44;100.00;101163.69;5006858;28;20079;-62
2021/10/14 06:53:36;;;;;;;13.48;9.50;;;;;;;8.50;100.00;101163.28;5008993;28;20038;-63
2021/10/14 06:56:02;;;;;;;14.52;8.95;;;;;;;8.57;99.40;101170.81;5012456;28;20072;-66
2021/10/14 06:58:27;;;;;;;11.50;8.30;;;;;;;8.59;99.17;101176.06;5012166;28;20080;-63
2021/10/14 07:00:53;;;;;;;12.75;8.15;;;;;;;8.59;98.48;101170.72;5012329;28;20050;-63
2021/10/14 07:03:18;;;;;;;10.32;7.90;;;;;;;8.60;98.14;101177.75;5012292;28;20033;-64
2021/10/14 07:05:44;;;;;;;12.05;8.68;;;;;;;8.60;97.17;101173.28;5012070;28;20056;-62
2021/10/14 07:08:09;;;;;;;11.35;8.18;;;;;;;8.60;97.13;101175.97;4998723;28;20034;-63
2021/10/14 07:10:35;;;;;;;12.02;8.15;;;;;;;8.58;96.99;101177.84;4992731;28;20026;-64
2021/10/14 07:13:07;;;;;;;12.18;8.20;;;;;;;8.61;96.72;101185.69;4991330;28;20081;-62
2021/10/14 07:15:33;;;;;;;11.23;8.50;;;;;;;8.65;96.69;101197.06;4992293;28;20468;-63
2021/10/14 07:17:59;;;;;;;10.77;7.95;;;;;;;8.67;97.09;101195.09;4992559;28;20029;-63
2021/10/14 07:20:25;;;;;;;14.80;8.50;;;;;;;8.72;96.96;101190.31;4992206;28;20396;-62
2021/10/14 07:22:50;;;;;;;11.65;7.90;;;;;;;8.75;96.30;101195.47;4990922;28;20026;-63
2021/10/14 07:25:16;;;;;;;11.75;7.60;;;;;;;8.77;96.22;101185.53;4992147;28;20030;-63
2021/10/14 07:27:41;;;;;;;12.43;7.75;;;;;;;8.83;96.42;101190.47;4992529;28;20073;-62
2021/10/14 07:30:08;;;;;;;10.20;7.30;;;;;;;8.81;96.20;101171.84;4992401;28;20141;-62
2021/10/14 07:32:34;;;;;;;11.43;7.43;;;;;;;8.94;95.89;101187.94;5004345;28;20914;-63
2021/10/14 07:35:00;;;;;;;10.95;7.85;;;;;;;8.96;95.10;101191.34;5011674;28;20036;-63
2021/10/14 07:37:25;;;;;;;13.43;8.55;;;;;;;9.08;94.41;101190.53;5000508;28;20027;-63
2021/10/14 07:39:50;;;;;;;15.13;8.55;;;;;;;9.14;94.17;101187.44;4992194;28;20181;-63
2021/10/14 07:42:16;;;;;;;10.68;7.57;;;;;;;9.21;94.54;101196.78;4991877;28;20061;-64
2021/10/14 07:44:42;;;;;;;10.15;7.15;;;;;;;9.30;93.72;101188.13;4992446;28;20048;-62
2021/10/14 07:47:08;;;;;;;9.95;6.97;;;;;;;9.46;92.74;101195.94;4991905;28;20468;-63
2021/10/14 07:49:33;;;;;;;10.68;7.53;;;;;;;9.57;92.59;101194.22;4991595;28;20476;-63
2021/10/14 07:51:59;;;;;;;10.18;7.25;;;;;;;9.74;92.04;101206.44;5002374;28;20030;-63
2021/10/14 07:54:24;;;;;;;9.32;7.20;;;;;;;9.82;90.70;101206.75;5011396;28;20053;-63
2021/10/14 07:56:51;;;;;;;9.60;7.00;;;;;;;9.93;86.83;101204.19;5011213;28;20087;-62
2021/10/14 07:59:17;;;;;;;11.20;7.55;;;;;;;9.99;85.26;101212.63;5011243;28;20033;-63
2021/10/14 08:01:42;;;;;;;9.07;7.18;;;;;;;10.05;85.13;101211.34;5011474;28;20029;-63
2021/10/14 08:04:09;;;;;;;9.27;7.20;;;;;;;10.10;85.03;101220.81;5010772;28;20029;-63
2021/10/14 08:06:35;;;;;;;10.75;8.10;;;;;;;10.20;85.31;101221.00;5010992;28;20272;-62
2021/10/14 08:09:02;;;;;;;9.88;7.85;;;;;;;10.31;84.23;101223.75;5006498;28;20057;-63
2021/10/14 08:11:27;;;;;;;8.77;7.35;;;;;;;10.39;83.75;101216.03;4991594;28;20030;-63
2021/10/14 08:13:53;;;;;;;11.43;7.75;;;;;;;10.44;82.11;101214.72;4991351;28;20026;-63
2021/10/14 08:16:18;;;;;;;10.30;7.72;;;;;;;10.52;80.28;101212.34;4991288;28;20021;-63
2021/10/14 08:18:44;;;;;;;12.65;8.40;;;;;;;10.52;79.92;101206.13;4991996;28;20132;-62
2021/10/14 08:21:10;;;;;;;12.23;8.48;;;;;;;10.62;81.15;101213.38;4991258;28;20525;-62
2021/10/14 08:23:35;;;;;;;10.40;7.68;;;;;;;10.66;81.05;101208.63;4991061;28;20114;-62
2021/10/14 08:26:01;;;;;;;12.45;7.97;;;;;;;10.68;80.44;101217.44;4991080;28;20030;-63
2021/10/14 08:28:27;;;;;;;12.38;8.30;;;;;;;10.59;80.20;101196.63;4990982;28;20036;-62
2021/10/14 08:30:53;;;;;;;11.02;7.40;;;;;;;10.78;79.37;101213.09;4991588;28;20112;-64
2021/10/14 08:33:19;;;;;;;11.07;8.60;;;;;;;10.87;79.58;101213.25;4991011;28;20022;-63
2021/10/14 08:35:44;;;;;;;9.07;7.53;;;;;;;11.03;77.64;101211.13;4991295;28;20030;-63
2021/10/14 08:38:11;;;;;;;11.38;8.55;;;;;;;11.06;75.83;101202.84;4991132;28;20472;-63
2021/10/14 08:40:38;;;;;;;13.45;8.10;;;;;;;11.04;74.96;101198.56;4990946;28;20393;-62
2021/10/14 08:43:13;;;;;;;11.00;8.15;;;;;;;11.15;74.09;101217.41;4990701;28;20546;-63
2021/10/14 08:45:43;;;;;;;10.52;8.52;;;;;;;11.01;73.68;101207.72;4991226;28;20096;-62
2021/10/14 08:48:09;;;;;;;11.50;7.55;;;;;;;11.07;73.49;101217.13;4990679;28;20488;-63
2021/10/14 08:50:36;;;;;;;13.88;8.65;;;;;;;11.01;74.70;101214.91;4989289;28;20034;-63
2021/10/14 08:53:02;;;;;;;12.98;8.55;;;;;;;10.97;75.04;101222.31;4990841;28;20503;-64
2021/10/14 08:55:30;;;;;;;12.40;8.57;;;;;;;10.92;74.85;101219.13;4990902;28;20034;-64
2021/10/14 08:57:59;;;;;;;12.25;8.77;;;;;;;10.87;75.06;101223.97;5007812;28;20109;-63
2021/10/14 09:00:24;;;;;;;12.77;9.20;;;;;;;10.86;75.97;101227.66;5009978;28;20042;-62
2021/10/14 09:02:49;;;;;;;14.70;9.65;;;;;;;10.77;75.76;101220.28;5009941;28;20041;-63
2021/10/14 09:05:16;;;;;;;12.95;8.68;;;;;;;10.80;75.57;101227.25;5010474;28;20079;-63
2021/10/14 09:07:42;;;;;;;11.85;8.50;;;;;;;10.75;75.16;101224.03;5010123;28;20053;-64
2021/10/14 09:10:12;;;;;;;18.10;10.02;;;;;;;10.72;75.48;101235.88;5010227;28;20034;-63
2021/10/14 09:12:43;;;;;;;13.55;9.10;;;;;;;10.74;77.15;101236.59;5009994;28;20045;-62
2021/10/14 09:15:11;;;;;;;14.25;8.95;;;;;;;10.72;77.49;101235.88;5009762;28;20030;-63
2021/10/14 09:17:36;;;;;;;15.35;9.88;;;;;;;10.75;77.25;101232.09;5009203;28;20029;-63
2021/10/14 09:20:20;;;;;;;12.63;8.95;;;;;;;10.74;75.59;101239.28;5009921;28;20545;-65
2021/10/14 09:22:59;;;;;;;10.73;8.57;;;;;;;10.76;76.71;101234.66;5009700;28;20108;-63
2021/10/14 09:25:45;;;;;;;12.77;9.27;;;;;;;10.74;77.05;101238.44;5006978;28;20084;-64
2021/10/14 09:28:24;;;;;;;13.48;9.30;;;;;;;10.72;76.71;101237.69;5004037;28;20042;-64
2021/10/14 09:30:54;;;;;;;12.27;9.48;;;;;;;10.72;76.38;101245.75;4990150;28;20038;-64
2021/10/14 09:33:38;;;;;;;13.77;9.60;;;;;;;10.70;76.60;101247.66;4998319;28;20022;-63
2021/10/14 09:36:12;;;;;;;15.15;9.85;;;;;;;10.68;76.97;101250.47;5009410;28;20117;-64
2021/10/14 09:38:38;;;;;;;;;;;;;;;10.66;75.13;101251.56;5009920;28;20229;-63
2021/10/14 09:41:06;;;;;;;12.45;8.82;;;;;;;10.66;74.85;101252.41;5003818;28;19918;-63
2021/10/14 09:43:32;;;;;;;12.70;9.35;;;;;;;10.66;74.65;101248.88;4989547;28;20037;-64
2021/10/14 09:45:57;;;;;;;14.40;10.00;;;;;;;10.64;75.92;101250.81;4990032;28;20034;-63
2021/10/14 09:48:23;;;;;;;13.68;9.63;;;;;;;10.61;75.85;101254.56;4989405;28;20026;-64
2021/10/14 09:50:49;;;;;;;14.90;9.75;;;;;;;10.61;75.76;101251.03;4989932;28;20041;-64
2021/10/14 09:53:17;;;;;;;13.35;9.18;;;;;;;10.61;77.00;101251.88;4989709;28;20034;-63
2021/10/14 09:55:43;;;;;;;13.77;9.80;;;;;;;10.55;77.52;101248.81;5004662;28;20117;-63
2021/10/14 09:58:09;;;;;;;12.13;9.45;;;;;;;10.63;76.93;101257.13;4989489;28;20109;-62
2021/10/14 10:00:37;;;;;;;14.02;9.88;;;;;;;10.61;76.70;101254.56;4989382;28;20137;-62
2021/10/14 10:03:04;;;;;;;12.98;9.65;;;;;;;10.64;76.48;101259.72;4989303;28;20034;-63
2021/10/14 10:05:31;;;;;;;12.43;9.55;;;;;;;10.60;76.01;101249.31;4989462;28;20038;-62
2021/10/14 10:07:59;;;;;;;13.55;9.85;;;;;;;10.66;76.25;101256.91;4990104;28;20049;-63
2021/10/14 10:10:27;;;;;;;14.65;9.82;;;;;;;10.68;77.19;101258.50;5007661;28;20064;-63
2021/10/14 10:12:56;;;;;;;11.85;9.25;;;;;;;10.67;76.87;101256.81;5008718;28;20037;-62
2021/10/14 10:15:38;;;;;;;12.40;9.70;;;;;;;10.67;76.87;101247.88;5008923;28;20026;-63
2021/10/14 10:18:26;;;;;;;13.88;10.20;;;;;;;10.69;76.46;101249.50;5008786;28;20029;-63
2021/10/14 10:20:57;;;;;;;16.95;10.07;;;;;;;10.71;77.08;101249.41;5007592;28;20037;-63
2021/10/14 10:23:49;;;;;;;11.40;9.27;;;;;;;10.73;78.20;101247.44;5008623;28;20433;-65
2021/10/14 10:26:34;;;;;;;14.30;10.02;;;;;;;10.73;76.52;101236.72;5006967;28;20042;-63
2021/10/14 10:29:02;;;;;;;12.35;10.07;;;;;;;10.72;76.44;101245.75;5008733;28;20085;-63
2021/10/14 10:31:46;;;;;;;14.80;10.27;;;;;;;10.74;76.48;101249.19;5006899;28;20033;-63
2021/10/14 10:34:40;;;;;;;15.48;9.98;;;;;;;10.71;76.60;101246.72;4988987;28;20026;-63
2021/10/14 10:37:10;;;;;;;13.05;10.02;;;;;;;10.75;76.30;101256.25;4987707;28;20026;-62
2021/10/14 10:40:09;;;;;;;13.88;10.05;;;;;;;10.73;76.04;101239.38;4988959;28;20054;-64
2021/10/14 10:42:40;;;;;;;15.40;10.15;;;;;;;10.75;76.30;101237.47;4989018;28;20113;-64
2021/10/14 10:45:25;;;;;;;14.07;10.02;;;;;;;10.76;76.90;101239.16;4988945;28;20030;-64
2021/10/14 10:48:02;;;;;;;14.15;10.13;;;;;;;10.74;76.97;101233.91;5007730;28;20101;-62
2021/10/14 10:50:33;;;;;;;12.95;10.88;;;;;;;10.81;77.54;101237.00;5008175;28;20096;-62
2021/10/14 10:53:10;;;;;;;14.85;10.52;;;;;;;10.85;77.60;101230.44;5008390;28;20050;-63
2021/10/14 10:55:48;;;;;;;12.45;9.55;;;;;;;10.87;78.36;101231.19;5008297;28;20033;-63
2021/10/14 10:58:27;;;;;;;13.45;10.02;;;;;;;10.91;77.71;101224.63;5008403;28;20431;-62
2021/10/14 11:00:53;;;;;;;12.10;9.60;;;;;;;10.95;76.38;101228.78;5008516;28;20046;-64
2021/10/14 11:03:24;;;;;;;13.60;9.02;;;;;;;10.98;75.30;101220.50;5008346;28;20460;-64
2021/10/14 11:05:54;;;;;;;13.88;10.05;;;;;;;11.00;75.45;101216.72;5008803;28;20472;-63
2021/10/14 11:08:22;;;;;;;13.32;9.82;;;;;;;11.04;75.53;101220.91;5008422;28;20057;-63
2021/10/14 11:10:54;;;;;;;13.27;9.60;;;;;;;11.08;75.83;101226.88;5008596;28;20032;-62
2021/10/14 11:13:21;;;;;;;11.75;9.50;;;;;;;11.06;74.79;101218.94;5008209;28;20033;-63
2021/10/14 11:15:48;;;;;;;11.10;9.13;;;;;;;11.05;74.50;101213.69;5008327;28;20029;-62